sensor_id;sensor_type;location;lat;lon;timestamp;P1;durP1;ratioP1;P2;durP2;ratioP2
5704;SDS011;2877;48.238;11.160;2023-01-01T00:01:57;22.10;;;12.70;;
5704;SDS011;2877;48.238;11.160;2023-01-01T00:04:23;17.30;;;12.10;;
5704;SDS011;2877;48.238;11.160;2023-01-01T00:06:49;12.80;;;9.60;;
5704;SDS011;2877;48.238;11.160;2023-01-01T00:09:15;10.07;;;7.20;;
5704;SDS011;2877;48.238;11.160;2023-01-01T00:11:59;7.97;;;5.63;;
5704;SDS011;2877;48.238;11.160;2023-01-01T00:14:24;7.80;;;6.20;;
5704;SDS011;2877;48.238;11.160;2023-01-01T00:16:52;8.60;;;6.17;;
5704;SDS011;2877;48.238;11.160;2023-01-01T00:19:18;9.77;;;6.57;;
5704;SDS011;2877;48.238;11.160;2023-01-01T00:21:44;10.10;;;5.83;;
5704;SDS011;2877;48.238;11.160;2023-01-01T00:24:10;8.40;;;5.77;;
5704;SDS011;2877;48.238;11.160;2023-01-01T00:26:36;7.70;;;6.40;;
5704;SDS011;2877;48.238;11.160;2023-01-01T00:29:02;9.80;;;6.90;;
5704;SDS011;2877;48.238;11.160;2023-01-01T00:31:28;8.50;;;6.33;;
5704;SDS011;2877;48.238;11.160;2023-01-01T00:33:54;10.30;;;6.87;;
5704;SDS011;2877;48.238;11.160;2023-01-01T00:36:20;14.03;;;8.40;;
5704;SDS011;2877;48.238;11.160;2023-01-01T00:38:47;13.37;;;9.40;;
5704;SDS011;2877;48.238;11.160;2023-01-01T00:41:13;15.53;;;9.90;;
5704;SDS011;2877;48.238;11.160;2023-01-01T00:43:40;14.67;;;10.20;;
5704;SDS011;2877;48.238;11.160;2023-01-01T00:46:06;12.07;;;8.33;;
5704;SDS011;2877;48.238;11.160;2023-01-01T00:48:32;11.20;;;7.40;;
5704;SDS011;2877;48.238;11.160;2023-01-01T00:50:58;18.23;;;7.87;;
5704;SDS011;2877;48.238;11.160;2023-01-01T00:53:24;12.00;;;8.27;;
5704;SDS011;2877;48.238;11.160;2023-01-01T00:55:50;11.47;;;7.80;;
5704;SDS011;2877;48.238;11.160;2023-01-01T00:58:17;9.63;;;6.80;;
5704;SDS011;2877;48.238;11.160;2023-01-01T01:00:44;11.83;;;7.97;;
5704;SDS011;2877;48.238;11.160;2023-01-01T01:03:10;13.17;;;8.60;;
5704;SDS011;2877;48.238;11.160;2023-01-01T01:05:52;8.87;;;7.20;;
5704;SDS011;2877;48.238;11.160;2023-01-01T01:08:23;12.20;;;6.60;;
5704;SDS011;2877;48.238;11.160;2023-01-01T01:10:49;7.20;;;5.90;;
5704;SDS011;2877;48.238;11.160;2023-01-01T01:13:14;7.70;;;6.00;;
5704;SDS011;2877;48.238;11.160;2023-01-01T01:15:40;7.93;;;5.53;;
5704;SDS011;2877;48.238;11.160;2023-01-01T01:18:05;6.40;;;4.50;;
5704;SDS011;2877;48.238;11.160;2023-01-01T01:20:31;4.87;;;3.97;;
5704;SDS011;2877;48.238;11.160;2023-01-01T01:22:56;6.30;;;4.30;;
5704;SDS011;2877;48.238;11.160;2023-01-01T01:25:22;5.03;;;3.93;;
5704;SDS011;2877;48.238;11.160;2023-01-01T01:27:47;4.83;;;3.83;;
5704;SDS011;2877;48.238;11.160;2023-01-01T01:30:13;6.00;;;4.70;;
5704;SDS011;2877;48.238;11.160;2023-01-01T01:32:39;7.00;;;4.10;;
5704;SDS011;2877;48.238;11.160;2023-01-01T01:35:04;8.63;;;5.47;;
5704;SDS011;2877;48.238;11.160;2023-01-01T01:37:30;15.40;;;8.67;;
5704;SDS011;2877;48.238;11.160;2023-01-01T01:39:55;12.33;;;7.97;;
5704;SDS011;2877;48.238;11.160;2023-01-01T01:42:21;10.17;;;6.57;;
5704;SDS011;2877;48.238;11.160;2023-01-01T01:47:21;8.53;;;5.53;;
5704;SDS011;2877;48.238;11.160;2023-01-01T01:49:52;12.30;;;8.77;;
5704;SDS011;2877;48.238;11.160;2023-01-01T01:52:23;12.17;;;8.90;;
5704;SDS011;2877;48.238;11.160;2023-01-01T01:54:49;8.20;;;5.70;;
5704;SDS011;2877;48.238;11.160;2023-01-01T01:57:15;9.80;;;7.43;;
5704;SDS011;2877;48.238;11.160;2023-01-01T01:59:42;14.00;;;8.60;;
5704;SDS011;2877;48.238;11.160;2023-01-01T02:02:15;11.63;;;8.70;;
5704;SDS011;2877;48.238;11.160;2023-01-01T02:04:48;13.27;;;9.17;;
5704;SDS011;2877;48.238;11.160;2023-01-01T02:07:14;14.63;;;10.10;;
5704;SDS011;2877;48.238;11.160;2023-01-01T02:09:40;15.33;;;9.57;;
5704;SDS011;2877;48.238;11.160;2023-01-01T02:12:06;14.47;;;9.73;;
5704;SDS011;2877;48.238;11.160;2023-01-01T02:14:32;19.73;;;11.57;;
5704;SDS011;2877;48.238;11.160;2023-01-01T02:17:01;16.77;;;11.33;;
5704;SDS011;2877;48.238;11.160;2023-01-01T02:22:24;18.80;;;12.33;;
5704;SDS011;2877;48.238;11.160;2023-01-01T02:27:42;20.63;;;13.60;;
5704;SDS011;2877;48.238;11.160;2023-01-01T02:30:23;22.40;;;14.00;;
5704;SDS011;2877;48.238;11.160;2023-01-01T02:33:02;20.87;;;13.77;;
5704;SDS011;2877;48.238;11.160;2023-01-01T02:35:32;19.97;;;13.30;;
5704;SDS011;2877;48.238;11.160;2023-01-01T02:38:04;20.70;;;14.07;;
5704;SDS011;2877;48.238;11.160;2023-01-01T02:40:39;23.03;;;14.03;;
5704;SDS011;2877;48.238;11.160;2023-01-01T02:43:26;23.80;;;15.30;;
5704;SDS011;2877;48.238;11.160;2023-01-01T02:45:52;25.40;;;14.73;;
5704;SDS011;2877;48.238;11.160;2023-01-01T02:51:11;25.97;;;15.70;;
5704;SDS011;2877;48.238;11.160;2023-01-01T02:59:27;25.47;;;15.77;;
5704;SDS011;2877;48.238;11.160;2023-01-01T03:08:11;25.90;;;15.60;;
5704;SDS011;2877;48.238;11.160;2023-01-01T03:13:33;25.53;;;15.70;;
5704;SDS011;2877;48.238;11.160;2023-01-01T03:16:19;24.70;;;16.20;;
5704;SDS011;2877;48.238;11.160;2023-01-01T03:19:06;25.87;;;16.53;;
5704;SDS011;2877;48.238;11.160;2023-01-01T03:24:26;27.87;;;17.67;;
5704;SDS011;2877;48.238;11.160;2023-01-01T03:26:57;26.47;;;16.40;;
5704;SDS011;2877;48.238;11.160;2023-01-01T03:29:30;22.47;;;15.00;;
5704;SDS011;2877;48.238;11.160;2023-01-01T03:32:02;21.00;;;14.10;;
5704;SDS011;2877;48.238;11.160;2023-01-01T03:34:32;22.83;;;14.27;;
5704;SDS011;2877;48.238;11.160;2023-01-01T03:37:03;18.97;;;12.40;;
5704;SDS011;2877;48.238;11.160;2023-01-01T03:39:37;18.03;;;11.23;;
5704;SDS011;2877;48.238;11.160;2023-01-01T03:42:14;18.93;;;12.37;;
5704;SDS011;2877;48.238;11.160;2023-01-01T03:44:48;19.97;;;11.73;;
5704;SDS011;2877;48.238;11.160;2023-01-01T03:47:18;19.10;;;12.67;;
5704;SDS011;2877;48.238;11.160;2023-01-01T03:49:44;19.83;;;12.50;;
5704;SDS011;2877;48.238;11.160;2023-01-01T03:57:56;16.67;;;11.60;;
5704;SDS011;2877;48.238;11.160;2023-01-01T04:00:32;17.73;;;10.60;;
5704;SDS011;2877;48.238;11.160;2023-01-01T04:03:03;14.27;;;9.93;;
5704;SDS011;2877;48.238;11.160;2023-01-01T04:05:40;13.90;;;9.83;;
5704;SDS011;2877;48.238;11.160;2023-01-01T04:08:07;15.30;;;9.80;;
5704;SDS011;2877;48.238;11.160;2023-01-01T04:10:35;12.00;;;8.23;;
5704;SDS011;2877;48.238;11.160;2023-01-01T04:13:04;13.47;;;8.30;;
5704;SDS011;2877;48.238;11.160;2023-01-01T04:15:31;13.30;;;8.93;;
5704;SDS011;2877;48.238;11.160;2023-01-01T04:17:57;12.70;;;7.53;;
5704;SDS011;2877;48.238;11.160;2023-01-01T04:20:23;12.20;;;7.73;;
5704;SDS011;2877;48.238;11.160;2023-01-01T04:22:49;10.50;;;7.17;;
5704;SDS011;2877;48.238;11.160;2023-01-01T04:25:15;10.00;;;7.03;;
5704;SDS011;2877;48.238;11.160;2023-01-01T04:27:41;13.10;;;7.40;;
5704;SDS011;2877;48.238;11.160;2023-01-01T04:30:08;10.10;;;7.27;;
5704;SDS011;2877;48.238;11.160;2023-01-01T04:32:36;29.37;;;18.80;;
5704;SDS011;2877;48.238;11.160;2023-01-01T04:35:01;11.30;;;7.70;;
5704;SDS011;2877;48.238;11.160;2023-01-01T04:37:27;10.10;;;7.00;;
5704;SDS011;2877;48.238;11.160;2023-01-01T04:39:52;10.47;;;6.13;;
5704;SDS011;2877;48.238;11.160;2023-01-01T04:42:18;11.20;;;6.70;;
5704;SDS011;2877;48.238;11.160;2023-01-01T04:44:44;11.83;;;7.10;;
5704;SDS011;2877;48.238;11.160;2023-01-01T04:47:09;9.10;;;6.37;;
5704;SDS011;2877;48.238;11.160;2023-01-01T04:49:35;9.60;;;6.10;;
5704;SDS011;2877;48.238;11.160;2023-01-01T04:52:00;6.63;;;5.50;;
5704;SDS011;2877;48.238;11.160;2023-01-01T04:54:26;7.70;;;5.30;;
5704;SDS011;2877;48.238;11.160;2023-01-01T04:56:52;8.60;;;6.00;;
5704;SDS011;2877;48.238;11.160;2023-01-01T04:59:18;7.13;;;4.83;;
5704;SDS011;2877;48.238;11.160;2023-01-01T05:01:43;7.13;;;5.00;;
5704;SDS011;2877;48.238;11.160;2023-01-01T05:04:11;8.10;;;5.43;;
5704;SDS011;2877;48.238;11.160;2023-01-01T05:06:37;6.10;;;4.80;;
5704;SDS011;2877;48.238;11.160;2023-01-01T05:09:03;7.27;;;5.10;;
5704;SDS011;2877;48.238;11.160;2023-01-01T05:11:29;6.93;;;5.20;;
5704;SDS011;2877;48.238;11.160;2023-01-01T05:13:56;7.80;;;5.40;;
5704;SDS011;2877;48.238;11.160;2023-01-01T05:16:25;9.50;;;6.13;;
5704;SDS011;2877;48.238;11.160;2023-01-01T05:18:52;7.07;;;5.13;;
5704;SDS011;2877;48.238;11.160;2023-01-01T05:21:19;10.70;;;5.93;;
5704;SDS011;2877;48.238;11.160;2023-01-01T05:23:48;8.43;;;5.20;;
5704;SDS011;2877;48.238;11.160;2023-01-01T05:26:19;6.80;;;5.33;;
5704;SDS011;2877;48.238;11.160;2023-01-01T05:28:47;8.20;;;5.17;;
5704;SDS011;2877;48.238;11.160;2023-01-01T05:31:17;9.13;;;5.20;;
5704;SDS011;2877;48.238;11.160;2023-01-01T05:33:48;6.57;;;4.80;;
5704;SDS011;2877;48.238;11.160;2023-01-01T05:36:16;7.77;;;5.53;;
5704;SDS011;2877;48.238;11.160;2023-01-01T05:38:46;6.33;;;4.50;;
5704;SDS011;2877;48.238;11.160;2023-01-01T05:41:13;4.60;;;4.10;;
5704;SDS011;2877;48.238;11.160;2023-01-01T05:43:40;6.33;;;3.87;;
5704;SDS011;2877;48.238;11.160;2023-01-01T05:46:07;5.57;;;4.60;;
5704;SDS011;2877;48.238;11.160;2023-01-01T05:48:35;4.67;;;4.10;;
5704;SDS011;2877;48.238;11.160;2023-01-01T05:51:04;7.50;;;4.90;;
5704;SDS011;2877;48.238;11.160;2023-01-01T05:53:31;5.40;;;4.00;;
5704;SDS011;2877;48.238;11.160;2023-01-01T05:55:57;7.17;;;3.97;;
5704;SDS011;2877;48.238;11.160;2023-01-01T05:58:23;5.30;;;3.80;;
5704;SDS011;2877;48.238;11.160;2023-01-01T06:00:49;6.53;;;4.20;;
5704;SDS011;2877;48.238;11.160;2023-01-01T06:03:15;5.37;;;4.10;;
5704;SDS011;2877;48.238;11.160;2023-01-01T06:05:41;5.40;;;4.50;;
5704;SDS011;2877;48.238;11.160;2023-01-01T06:08:06;4.77;;;3.90;;
5704;SDS011;2877;48.238;11.160;2023-01-01T06:10:32;6.57;;;4.13;;
5704;SDS011;2877;48.238;11.160;2023-01-01T06:12:57;5.20;;;3.87;;
5704;SDS011;2877;48.238;11.160;2023-01-01T06:15:23;5.53;;;3.77;;
5704;SDS011;2877;48.238;11.160;2023-01-01T06:17:49;4.53;;;3.47;;
5704;SDS011;2877;48.238;11.160;2023-01-01T06:20:15;4.03;;;3.63;;
5704;SDS011;2877;48.238;11.160;2023-01-01T06:22:40;6.30;;;4.60;;
5704;SDS011;2877;48.238;11.160;2023-01-01T06:25:06;4.87;;;4.33;;
5704;SDS011;2877;48.238;11.160;2023-01-01T06:27:33;4.53;;;3.57;;
5704;SDS011;2877;48.238;11.160;2023-01-01T06:30:00;4.30;;;3.73;;
5704;SDS011;2877;48.238;11.160;2023-01-01T06:32:26;5.30;;;3.80;;
5704;SDS011;2877;48.238;11.160;2023-01-01T06:34:51;4.57;;;3.47;;
5704;SDS011;2877;48.238;11.160;2023-01-01T06:37:17;4.93;;;3.47;;
5704;SDS011;2877;48.238;11.160;2023-01-01T06:39:42;5.97;;;4.50;;
5704;SDS011;2877;48.238;11.160;2023-01-01T06:42:08;8.10;;;5.40;;
5704;SDS011;2877;48.238;11.160;2023-01-01T06:44:33;3.83;;;3.33;;
5704;SDS011;2877;48.238;11.160;2023-01-01T06:46:59;4.60;;;3.60;;
5704;SDS011;2877;48.238;11.160;2023-01-01T06:49:24;6.63;;;2.90;;
5704;SDS011;2877;48.238;11.160;2023-01-01T06:51:50;3.53;;;2.90;;
5704;SDS011;2877;48.238;11.160;2023-01-01T06:54:15;3.07;;;2.70;;
5704;SDS011;2877;48.238;11.160;2023-01-01T06:56:41;3.77;;;2.90;;
5704;SDS011;2877;48.238;11.160;2023-01-01T06:59:07;2.77;;;2.50;;
5704;SDS011;2877;48.238;11.160;2023-01-01T07:01:33;3.50;;;3.20;;
5704;SDS011;2877;48.238;11.160;2023-01-01T07:04:01;2.57;;;2.37;;
5704;SDS011;2877;48.238;11.160;2023-01-01T07:06:29;3.83;;;2.80;;
5704;SDS011;2877;48.238;11.160;2023-01-01T07:08:56;5.83;;;3.00;;
5704;SDS011;2877;48.238;11.160;2023-01-01T07:11:22;2.70;;;2.40;;
5704;SDS011;2877;48.238;11.160;2023-01-01T07:13:48;2.93;;;2.63;;
5704;SDS011;2877;48.238;11.160;2023-01-01T07:16:14;3.37;;;2.83;;
5704;SDS011;2877;48.238;11.160;2023-01-01T07:18:39;3.60;;;3.03;;
5704;SDS011;2877;48.238;11.160;2023-01-01T07:21:05;3.17;;;2.80;;
5704;SDS011;2877;48.238;11.160;2023-01-01T07:23:45;3.70;;;3.30;;
5704;SDS011;2877;48.238;11.160;2023-01-01T07:26:11;4.23;;;3.17;;
5704;SDS011;2877;48.238;11.160;2023-01-01T07:28:36;3.73;;;2.90;;
5704;SDS011;2877;48.238;11.160;2023-01-01T07:31:02;4.33;;;2.80;;
5704;SDS011;2877;48.238;11.160;2023-01-01T07:33:27;3.43;;;3.03;;
5704;SDS011;2877;48.238;11.160;2023-01-01T07:35:53;3.20;;;2.90;;
5704;SDS011;2877;48.238;11.160;2023-01-01T07:38:18;7.30;;;3.20;;
5704;SDS011;2877;48.238;11.160;2023-01-01T07:40:44;3.17;;;2.80;;
5704;SDS011;2877;48.238;11.160;2023-01-01T07:43:10;4.57;;;3.07;;
5704;SDS011;2877;48.238;11.160;2023-01-01T07:45:36;3.10;;;2.80;;
5704;SDS011;2877;48.238;11.160;2023-01-01T07:48:02;4.17;;;2.90;;
5704;SDS011;2877;48.238;11.160;2023-01-01T07:50:29;2.93;;;2.73;;
5704;SDS011;2877;48.238;11.160;2023-01-01T07:52:56;3.27;;;2.90;;
5704;SDS011;2877;48.238;11.160;2023-01-01T07:55:22;4.17;;;3.00;;
5704;SDS011;2877;48.238;11.160;2023-01-01T07:57:48;3.40;;;3.10;;
5704;SDS011;2877;48.238;11.160;2023-01-01T08:00:17;3.20;;;2.90;;
5704;SDS011;2877;48.238;11.160;2023-01-01T08:02:44;3.93;;;3.17;;
5704;SDS011;2877;48.238;11.160;2023-01-01T08:05:09;3.47;;;2.60;;
5704;SDS011;2877;48.238;11.160;2023-01-01T08:07:35;4.57;;;2.80;;
5704;SDS011;2877;48.238;11.160;2023-01-01T08:10:02;3.63;;;3.33;;
5704;SDS011;2877;48.238;11.160;2023-01-01T08:12:31;3.43;;;3.13;;
5704;SDS011;2877;48.238;11.160;2023-01-01T08:14:57;3.57;;;3.20;;
5704;SDS011;2877;48.238;11.160;2023-01-01T08:17:23;3.57;;;2.80;;
5704;SDS011;2877;48.238;11.160;2023-01-01T08:19:48;4.03;;;3.00;;
5704;SDS011;2877;48.238;11.160;2023-01-01T08:22:14;3.70;;;2.80;;
5704;SDS011;2877;48.238;11.160;2023-01-01T08:24:40;3.73;;;2.80;;
5704;SDS011;2877;48.238;11.160;2023-01-01T08:27:06;3.63;;;3.17;;
5704;SDS011;2877;48.238;11.160;2023-01-01T08:29:31;3.10;;;2.80;;
5704;SDS011;2877;48.238;11.160;2023-01-01T08:31:57;3.90;;;3.20;;
5704;SDS011;2877;48.238;11.160;2023-01-01T08:34:22;3.17;;;2.67;;
5704;SDS011;2877;48.238;11.160;2023-01-01T08:36:48;3.50;;;2.47;;
5704;SDS011;2877;48.238;11.160;2023-01-01T08:39:13;3.17;;;2.80;;
5704;SDS011;2877;48.238;11.160;2023-01-01T08:41:39;3.40;;;2.80;;
5704;SDS011;2877;48.238;11.160;2023-01-01T08:44:04;2.93;;;2.30;;
5704;SDS011;2877;48.238;11.160;2023-01-01T08:46:30;5.17;;;2.50;;
5704;SDS011;2877;48.238;11.160;2023-01-01T08:48:56;6.87;;;3.03;;
5704;SDS011;2877;48.238;11.160;2023-01-01T08:51:21;3.70;;;3.00;;
5704;SDS011;2877;48.238;11.160;2023-01-01T08:53:47;3.77;;;2.53;;
5704;SDS011;2877;48.238;11.160;2023-01-01T08:56:12;3.83;;;2.93;;
5704;SDS011;2877;48.238;11.160;2023-01-01T08:58:40;2.83;;;2.63;;
5704;SDS011;2877;48.238;11.160;2023-01-01T09:01:07;3.47;;;2.87;;
5704;SDS011;2877;48.238;11.160;2023-01-01T09:03:33;3.90;;;2.80;;
5704;SDS011;2877;48.238;11.160;2023-01-01T09:05:59;2.80;;;2.60;;
5704;SDS011;2877;48.238;11.160;2023-01-01T09:08:25;9.33;;;2.70;;
5704;SDS011;2877;48.238;11.160;2023-01-01T09:10:51;3.90;;;2.33;;
5704;SDS011;2877;48.238;11.160;2023-01-01T09:13:18;4.37;;;2.73;;
5704;SDS011;2877;48.238;11.160;2023-01-01T09:15:45;7.90;;;4.17;;
5704;SDS011;2877;48.238;11.160;2023-01-01T09:18:10;14.20;;;8.20;;
5704;SDS011;2877;48.238;11.160;2023-01-01T09:20:36;13.30;;;7.20;;
5704;SDS011;2877;48.238;11.160;2023-01-01T09:23:02;14.63;;;5.50;;
5704;SDS011;2877;48.238;11.160;2023-01-01T09:25:28;7.30;;;4.33;;
5704;SDS011;2877;48.238;11.160;2023-01-01T09:27:58;4.70;;;3.13;;
5704;SDS011;2877;48.238;11.160;2023-01-01T09:30:25;9.40;;;3.23;;
5704;SDS011;2877;48.238;11.160;2023-01-01T09:32:51;4.90;;;3.70;;
5704;SDS011;2877;48.238;11.160;2023-01-01T09:35:16;4.50;;;2.93;;
5704;SDS011;2877;48.238;11.160;2023-01-01T09:37:42;2.90;;;2.60;;
5704;SDS011;2877;48.238;11.160;2023-01-01T09:40:10;6.53;;;3.47;;
5704;SDS011;2877;48.238;11.160;2023-01-01T09:42:56;3.63;;;3.03;;
5704;SDS011;2877;48.238;11.160;2023-01-01T09:45:39;2.50;;;2.30;;
5704;SDS011;2877;48.238;11.160;2023-01-01T09:48:18;4.90;;;3.67;;
5704;SDS011;2877;48.238;11.160;2023-01-01T09:50:45;4.00;;;2.50;;
5704;SDS011;2877;48.238;11.160;2023-01-01T09:53:12;2.57;;;2.37;;
5704;SDS011;2877;48.238;11.160;2023-01-01T09:55:46;2.60;;;2.33;;
5704;SDS011;2877;48.238;11.160;2023-01-01T09:58:22;2.33;;;2.13;;
5704;SDS011;2877;48.238;11.160;2023-01-01T10:00:59;7.10;;;2.57;;
5704;SDS011;2877;48.238;11.160;2023-01-01T10:06:06;2.43;;;2.23;;
5704;SDS011;2877;48.238;11.160;2023-01-01T10:12:02;1.97;;;1.87;;
5704;SDS011;2877;48.238;11.160;2023-01-01T10:14:43;2.50;;;2.10;;
5704;SDS011;2877;48.238;11.160;2023-01-01T10:17:20;1.93;;;1.83;;
5704;SDS011;2877;48.238;11.160;2023-01-01T10:20:00;3.60;;;2.20;;
5704;SDS011;2877;48.238;11.160;2023-01-01T10:22:35;4.03;;;1.70;;
5704;SDS011;2877;48.238;11.160;2023-01-01T10:25:06;1.97;;;1.77;;
5704;SDS011;2877;48.238;11.160;2023-01-01T10:27:44;2.10;;;1.90;;
5704;SDS011;2877;48.238;11.160;2023-01-01T10:30:18;4.30;;;2.13;;
5704;SDS011;2877;48.238;11.160;2023-01-01T10:32:49;1.80;;;1.70;;
5704;SDS011;2877;48.238;11.160;2023-01-01T10:35:17;1.87;;;1.70;;
5704;SDS011;2877;48.238;11.160;2023-01-01T10:37:44;5.57;;;2.13;;
5704;SDS011;2877;48.238;11.160;2023-01-01T10:42:48;3.20;;;1.90;;
5704;SDS011;2877;48.238;11.160;2023-01-01T10:45:16;3.47;;;2.53;;
5704;SDS011;2877;48.238;11.160;2023-01-01T10:48:24;2.80;;;2.03;;
5704;SDS011;2877;48.238;11.160;2023-01-01T10:50:52;1.93;;;1.83;;
5704;SDS011;2877;48.238;11.160;2023-01-01T10:53:29;2.27;;;1.93;;
5704;SDS011;2877;48.238;11.160;2023-01-01T10:56:15;1.93;;;1.70;;
5704;SDS011;2877;48.238;11.160;2023-01-01T10:58:55;3.07;;;1.67;;
5704;SDS011;2877;48.238;11.160;2023-01-01T11:01:23;1.73;;;1.63;;
5704;SDS011;2877;48.238;11.160;2023-01-01T11:04:36;1.93;;;1.70;;
5704;SDS011;2877;48.238;11.160;2023-01-01T11:06:44;2.13;;;1.70;;
5704;SDS011;2877;48.238;11.160;2023-01-01T11:09:24;2.07;;;1.93;;
5704;SDS011;2877;48.238;11.160;2023-01-01T11:12:01;2.23;;;2.03;;
5704;SDS011;2877;48.238;11.160;2023-01-01T11:14:42;1.50;;;1.40;;
5704;SDS011;2877;48.238;11.160;2023-01-01T11:17:13;4.03;;;2.20;;
5704;SDS011;2877;48.238;11.160;2023-01-01T11:19:46;2.53;;;1.90;;
5704;SDS011;2877;48.238;11.160;2023-01-01T11:25:00;2.00;;;1.90;;
5704;SDS011;2877;48.238;11.160;2023-01-01T11:27:26;2.30;;;1.50;;
5704;SDS011;2877;48.238;11.160;2023-01-01T11:29:55;2.10;;;1.60;;
5704;SDS011;2877;48.238;11.160;2023-01-01T11:32:46;3.33;;;1.50;;
5704;SDS011;2877;48.238;11.160;2023-01-01T11:35:18;2.70;;;1.50;;
5704;SDS011;2877;48.238;11.160;2023-01-01T11:37:47;1.83;;;1.73;;
5704;SDS011;2877;48.238;11.160;2023-01-01T11:40:19;1.83;;;1.50;;
5704;SDS011;2877;48.238;11.160;2023-01-01T11:42:49;1.80;;;1.70;;
5704;SDS011;2877;48.238;11.160;2023-01-01T11:45:21;3.90;;;1.80;;
5704;SDS011;2877;48.238;11.160;2023-01-01T11:47:57;2.03;;;1.83;;
5704;SDS011;2877;48.238;11.160;2023-01-01T11:50:26;1.60;;;1.50;;
5704;SDS011;2877;48.238;11.160;2023-01-01T11:52:53;1.70;;;1.60;;
5704;SDS011;2877;48.238;11.160;2023-01-01T11:55:28;2.00;;;1.70;;
5704;SDS011;2877;48.238;11.160;2023-01-01T11:58:11;7.93;;;1.93;;
5704;SDS011;2877;48.238;11.160;2023-01-01T12:00:42;1.73;;;1.63;;
5704;SDS011;2877;48.238;11.160;2023-01-01T12:03:11;2.00;;;1.57;;
5704;SDS011;2877;48.238;11.160;2023-01-01T12:05:54;1.67;;;1.57;;
5704;SDS011;2877;48.238;11.160;2023-01-01T12:11:16;1.77;;;1.53;;
5704;SDS011;2877;48.238;11.160;2023-01-01T12:13:44;2.30;;;1.67;;
5704;SDS011;2877;48.238;11.160;2023-01-01T12:17:00;2.10;;;1.77;;
5704;SDS011;2877;48.238;11.160;2023-01-01T12:19:17;3.20;;;1.90;;
5704;SDS011;2877;48.238;11.160;2023-01-01T12:21:53;1.60;;;1.50;;
5704;SDS011;2877;48.238;11.160;2023-01-01T12:24:22;1.67;;;1.57;;
5704;SDS011;2877;48.238;11.160;2023-01-01T12:27:06;2.17;;;1.83;;
5704;SDS011;2877;48.238;11.160;2023-01-01T12:30:00;3.20;;;1.90;;
5704;SDS011;2877;48.238;11.160;2023-01-01T12:38:11;2.17;;;1.80;;
5704;SDS011;2877;48.238;11.160;2023-01-01T12:46:36;2.03;;;1.60;;
5704;SDS011;2877;48.238;11.160;2023-01-01T12:49:30;1.87;;;1.67;;
5704;SDS011;2877;48.238;11.160;2023-01-01T12:52:30;1.50;;;1.40;;
5704;SDS011;2877;48.238;11.160;2023-01-01T12:58:12;1.63;;;1.53;;
5704;SDS011;2877;48.238;11.160;2023-01-01T13:00:44;1.70;;;1.60;;
5704;SDS011;2877;48.238;11.160;2023-01-01T13:03:18;1.80;;;1.30;;
5704;SDS011;2877;48.238;11.160;2023-01-01T13:05:49;1.97;;;1.77;;
5704;SDS011;2877;48.238;11.160;2023-01-01T13:08:18;1.67;;;1.57;;
5704;SDS011;2877;48.238;11.160;2023-01-01T13:10:48;1.40;;;1.30;;
5704;SDS011;2877;48.238;11.160;2023-01-01T13:13:17;2.03;;;1.87;;
5704;SDS011;2877;48.238;11.160;2023-01-01T13:15:47;3.47;;;1.50;;
5704;SDS011;2877;48.238;11.160;2023-01-01T13:18:21;2.30;;;1.70;;
5704;SDS011;2877;48.238;11.160;2023-01-01T13:39:50;4.00;;;1.37;;
5704;SDS011;2877;48.238;11.160;2023-01-01T13:42:37;1.83;;;1.30;;
5704;SDS011;2877;48.238;11.160;2023-01-01T13:45:33;5.63;;;1.20;;
5704;SDS011;2877;48.238;11.160;2023-01-01T13:59:39;2.03;;;1.67;;
5704;SDS011;2877;48.238;11.160;2023-01-01T14:02:32;1.63;;;1.40;;
5704;SDS011;2877;48.238;11.160;2023-01-01T14:07:40;1.10;;;1.00;;
5704;SDS011;2877;48.238;11.160;2023-01-01T14:10:15;1.30;;;1.20;;
5704;SDS011;2877;48.238;11.160;2023-01-01T14:12:47;1.40;;;1.30;;
5704;SDS011;2877;48.238;11.160;2023-01-01T14:17:46;1.90;;;1.43;;
5704;SDS011;2877;48.238;11.160;2023-01-01T14:20:13;1.30;;;1.20;;
5704;SDS011;2877;48.238;11.160;2023-01-01T14:22:45;1.60;;;1.50;;
5704;SDS011;2877;48.238;11.160;2023-01-01T14:25:13;3.10;;;1.50;;
5704;SDS011;2877;48.238;11.160;2023-01-01T14:27:43;1.50;;;1.40;;
5704;SDS011;2877;48.238;11.160;2023-01-01T14:30:16;1.63;;;1.50;;
5704;SDS011;2877;48.238;11.160;2023-01-01T14:32:42;1.53;;;1.43;;
5704;SDS011;2877;48.238;11.160;2023-01-01T14:35:15;2.10;;;1.83;;
5704;SDS011;2877;48.238;11.160;2023-01-01T14:37:41;2.70;;;1.30;;
5704;SDS011;2877;48.238;11.160;2023-01-01T14:40:17;1.53;;;1.43;;
5704;SDS011;2877;48.238;11.160;2023-01-01T14:42:53;1.50;;;1.40;;
5704;SDS011;2877;48.238;11.160;2023-01-01T14:45:30;1.30;;;1.30;;
5704;SDS011;2877;48.238;11.160;2023-01-01T14:48:00;1.80;;;1.40;;
5704;SDS011;2877;48.238;11.160;2023-01-01T14:50:28;2.00;;;1.90;;
5704;SDS011;2877;48.238;11.160;2023-01-01T14:53:02;2.30;;;2.10;;
5704;SDS011;2877;48.238;11.160;2023-01-01T14:55:37;1.90;;;1.80;;
5704;SDS011;2877;48.238;11.160;2023-01-01T14:58:04;1.63;;;1.50;;
5704;SDS011;2877;48.238;11.160;2023-01-01T15:00:30;3.37;;;2.40;;
5704;SDS011;2877;48.238;11.160;2023-01-01T15:03:05;3.10;;;2.50;;
5704;SDS011;2877;48.238;11.160;2023-01-01T15:06:01;12.77;;;5.43;;
5704;SDS011;2877;48.238;11.160;2023-01-01T15:08:27;10.63;;;6.50;;
5704;SDS011;2877;48.238;11.160;2023-01-01T15:10:53;6.50;;;5.50;;
5704;SDS011;2877;48.238;11.160;2023-01-01T15:13:21;4.60;;;3.23;;
5704;SDS011;2877;48.238;11.160;2023-01-01T15:15:50;4.90;;;3.17;;
5704;SDS011;2877;48.238;11.160;2023-01-01T15:21:12;2.67;;;2.47;;
5704;SDS011;2877;48.238;11.160;2023-01-01T15:24:00;3.40;;;3.10;;
5704;SDS011;2877;48.238;11.160;2023-01-01T15:29:06;3.53;;;2.60;;
5704;SDS011;2877;48.238;11.160;2023-01-01T15:31:35;13.33;;;2.70;;
5704;SDS011;2877;48.238;11.160;2023-01-01T15:34:03;1.70;;;1.60;;
5704;SDS011;2877;48.238;11.160;2023-01-01T15:36:29;4.40;;;2.70;;
5704;SDS011;2877;48.238;11.160;2023-01-01T15:38:55;15.47;;;12.43;;
5704;SDS011;2877;48.238;11.160;2023-01-01T15:41:42;8.30;;;6.00;;
5704;SDS011;2877;48.238;11.160;2023-01-01T15:44:26;4.80;;;3.13;;
5704;SDS011;2877;48.238;11.160;2023-01-01T15:47:08;2.00;;;1.80;;
5704;SDS011;2877;48.238;11.160;2023-01-01T15:49:37;4.57;;;2.03;;
5704;SDS011;2877;48.238;11.160;2023-01-01T15:52:04;1.63;;;1.53;;
5704;SDS011;2877;48.238;11.160;2023-01-01T15:54:38;1.37;;;1.27;;
5704;SDS011;2877;48.238;11.160;2023-01-01T15:59:58;5.50;;;1.63;;
5704;SDS011;2877;48.238;11.160;2023-01-01T16:02:25;1.57;;;1.47;;
5704;SDS011;2877;48.238;11.160;2023-01-01T16:04:56;2.93;;;1.80;;
5704;SDS011;2877;48.238;11.160;2023-01-01T16:07:23;1.53;;;1.37;;
5704;SDS011;2877;48.238;11.160;2023-01-01T16:09:49;1.57;;;1.43;;
5704;SDS011;2877;48.238;11.160;2023-01-01T16:12:16;1.50;;;1.40;;
5704;SDS011;2877;48.238;11.160;2023-01-01T16:14:41;1.93;;;1.60;;
5704;SDS011;2877;48.238;11.160;2023-01-01T16:17:14;2.40;;;1.57;;
5704;SDS011;2877;48.238;11.160;2023-01-01T16:19:41;1.27;;;1.17;;
5704;SDS011;2877;48.238;11.160;2023-01-01T16:22:10;1.97;;;1.47;;
5704;SDS011;2877;48.238;11.160;2023-01-01T16:24:38;2.67;;;1.47;;
5704;SDS011;2877;48.238;11.160;2023-01-01T16:27:03;1.47;;;1.00;;
5704;SDS011;2877;48.238;11.160;2023-01-01T16:29:29;1.97;;;1.00;;
5704;SDS011;2877;48.238;11.160;2023-01-01T16:31:55;2.13;;;1.20;;
5704;SDS011;2877;48.238;11.160;2023-01-01T16:34:20;1.10;;;1.10;;
5704;SDS011;2877;48.238;11.160;2023-01-01T16:36:46;1.53;;;1.43;;
5704;SDS011;2877;48.238;11.160;2023-01-01T16:39:11;1.20;;;1.10;;
5704;SDS011;2877;48.238;11.160;2023-01-01T16:41:41;1.20;;;1.20;;
5704;SDS011;2877;48.238;11.160;2023-01-01T16:44:11;1.63;;;1.53;;
5704;SDS011;2877;48.238;11.160;2023-01-01T16:46:37;1.73;;;1.63;;
5704;SDS011;2877;48.238;11.160;2023-01-01T16:49:03;2.93;;;1.67;;
5704;SDS011;2877;48.238;11.160;2023-01-01T16:51:29;1.37;;;1.30;;
5704;SDS011;2877;48.238;11.160;2023-01-01T16:53:55;1.77;;;1.30;;
5704;SDS011;2877;48.238;11.160;2023-01-01T16:56:21;1.67;;;1.30;;
5704;SDS011;2877;48.238;11.160;2023-01-01T16:58:47;1.43;;;1.20;;
5704;SDS011;2877;48.238;11.160;2023-01-01T17:01:13;1.40;;;1.30;;